Harrisburg International Airport Harrisburg US
ICAO: KMDT
IATA: MDT
Category: Medium
Scheduled Services: Yes

Elevation: 310 ft
TransAlt. 18000 ft.

Airport Communications:
APP/DEP:118.25
ATIS:118.8
GND:121.7
ANG OPS:39.51
TWR:124.8

KMDT Zoom In..

If you have problems with the map follow the link
https://www.worldairports.se/pages/airport.php?
ICAO=KMDT

Runways:

(A) RW 13 length 10002 ft width 200 ft
ILS 110.90 / hdg 128

(B) RW 31 length 10002 ft width 200 ft
ILS 110.90 / hdg 308

Location; KMDT
Day. 16 / Time. 03.56 Zulu
* Altimeter: 29.73
* Temperature: 01° c. 33.8°f.
* Wind from: 020° Speed 04 kn.
Dewpoint: -01° c.
Visibility: 5 Statute Miles.
Clouds: Overcast 1000 ft.
Conditions: Slight Drizzle.Conditions: Mist.

KMDT 160356Z 02004KT 5SM -DZ BR OVC010 01/M01 A2973 RMK AO2 PLE22 CIG 007V012 SLP072 P0003 I1003 T00111006


Wind From 020°
Speed 04 kn.

 
 
jpsmedia.com for Web Design worldairports.se 2018   terms of use